Terminal Aerodrome Forecast
Issued by NWS Charleston, WV

Current Version | Previous Version | Text Only | Print | Product List | Glossary Off
Versions: 1 2 3 4 5 6 7 8 9 10 11 12 13 14 15 16 17 18 19 20 21 22 23 24 25

000
FTUS41 KRLX 280200 AAB
TAFHTS
TAF AMD
KHTS 280244Z 2803/2824 VRB04KT P6SM FEW050
      TEMPO 2803/2804 3SM -TSRA BKN050CB OVC250
     FM280800 02004KT 5SM BR BKN025
     FM281300 00000KT P6SM BKN025
     FM281500 00000KT P6SM SCT045=

USA.gov is the U.S. government's official web portal to all federal, state and local government web resources and services.